Time,TemperatureF,DewpointF,PressureIn,WindDirection,WindDirectionDegrees,WindSpeedMPH,WindSpeedGustMPH,Humidity,HourlyPrecipIn,Conditions,Clouds,dailyrainin,SoftwareType,DateUTC
2013-02-20 00:00:00,36.9,29.4,30.21,NNE,30,0.0,0.0,74,0.00,,---,0.00,VWS V14.01,2013-02-20 06:00:00,
2013-02-20 00:05:00,37.2,29.7,30.21,NNE,30,0.0,0.0,74,0.00,,---,0.00,VWS V14.01,2013-02-20 06:05:00,
2013-02-20 00:10:00,37.2,29.7,30.21,NNE,30,2.0,2.0,74,0.00,,---,0.00,VWS V14.01,2013-02-20 06:10:00,
2013-02-20 00:15:00,38.2,29.6,30.21,NNE,30,0.0,0.0,71,0.00,,---,0.00,VWS V14.01,2013-02-20 06:15:00,
2013-02-20 00:20:00,38.9,30.3,30.22,NNE,30,0.0,0.0,71,0.00,,---,0.00,VWS V14.01,2013-02-20 06:20:00,
2013-02-20 00:25:00,38.9,30.0,30.22,NNE,30,0.0,0.0,70,0.00,,---,0.00,VWS V14.01,2013-02-20 06:25:00,
2013-02-20 00:30:00,39.1,30.9,30.22,NNE,30,0.0,0.0,72,0.00,,---,0.00,VWS V14.01,2013-02-20 06:30:00,
2013-02-20 00:35:00,39.1,31.5,30.22,NNE,30,0.0,0.0,74,0.00,,---,0.00,VWS V14.01,2013-02-20 06:35:00,
2013-02-20 00:40:00,38.9,32.0,30.22,NNE,30,0.0,0.0,76,0.00,,---,0.00,VWS V14.01,2013-02-20 06:40:00,
2013-02-20 00:45:00,38.9,32.0,30.22,NNE,30,0.0,0.0,76,0.00,,---,0.00,VWS V14.01,2013-02-20 06:45:00,
2013-02-20 00:50:00,39.1,32.8,30.22,NNE,30,0.0,0.0,78,0.00,,---,0.00,VWS V14.01,2013-02-20 06:50:00,
2013-02-20 00:55:00,39.1,31.9,30.22,NNE,30,0.0,0.0,75,0.00,,---,0.00,VWS V14.01,2013-02-20 06:55:00,
2013-02-20 01:00:00,39.2,31.0,30.22,NNE,30,2.0,2.0,72,0.00,,---,0.00,VWS V14.01,2013-02-20 07:00:00,
2013-02-20 01:05:00,40.1,31.8,30.21,NNE,33,0.0,0.0,72,0.00,,---,0.00,VWS V14.01,2013-02-20 07:05:00,
2013-02-20 01:10:00,40.8,27.6,30.22,NNE,33,0.0,0.0,59,0.00,,---,0.00,VWS V14.01,2013-02-20 07:10:00,
2013-02-20 01:15:00,41.2,26.7,30.22,NNE,33,0.0,0.0,56,0.00,,---,0.00,VWS V14.01,2013-02-20 07:15:00,
2013-02-20 01:20:00,41.5,27.0,30.22,NNE,33,0.0,0.0,56,0.00,,---,0.00,VWS V14.01,2013-02-20 07:20:00,
2013-02-20 01:25:00,41.6,27.5,30.21,NNE,33,0.0,0.0,57,0.00,,---,0.00,VWS V14.01,2013-02-20 07:25:00,
2013-02-20 01:30:00,41.6,27.9,30.21,NNE,33,0.0,0.0,58,0.00,,---,0.00,VWS V14.01,2013-02-20 07:30:00,
2013-02-20 01:35:00,41.6,27.9,30.21,NNE,33,0.0,0.0,58,0.00,,---,0.00,VWS V14.01,2013-02-20 07:35:00,
2013-02-20 01:40:00,41.6,27.1,30.21,NNE,33,0.0,0.0,56,0.00,,---,0.00,VWS V14.01,2013-02-20 07:40:00,
2013-02-20 01:45:00,41.6,27.1,30.21,NNE,33,0.0,0.0,56,0.00,,---,0.00,VWS V14.01,2013-02-20 07:45:00,
2013-02-20 01:50:00,41.6,27.9,30.21,NNE,33,0.0,0.0,58,0.00,,---,0.00,VWS V14.01,2013-02-20 07:50:00,
2013-02-20 01:55:00,41.5,27.0,30.20,NE,36,1.0,3.0,56,0.00,,---,0.00,VWS V14.01,2013-02-20 07:55:00,
2013-02-20 02:00:00,41.6,27.5,30.20,NE,36,2.0,3.0,57,0.00,,---,0.00,VWS V14.01,2013-02-20 08:00:00,
2013-02-20 02:05:00,41.6,27.1,30.20,NE,36,1.0,2.0,56,0.00,,---,0.00,VWS V14.01,2013-02-20 08:05:00,
2013-02-20 02:10:00,41.6,27.1,30.20,NE,36,1.0,2.0,56,0.00,,---,0.00,VWS V14.01,2013-02-20 08:10:00,
2013-02-20 02:15:00,41.6,27.5,30.20,NE,39,1.0,3.0,57,0.00,,---,0.00,VWS V14.01,2013-02-20 08:15:00,
2013-02-20 02:20:00,41.6,27.5,30.20,NE,37,3.0,5.0,57,0.00,,---,0.00,VWS V14.01,2013-02-20 08:20:00,
2013-02-20 02:25:00,41.6,27.1,30.20,NE,39,1.0,3.0,56,0.00,,---,0.00,VWS V14.01,2013-02-20 08:25:00,
2013-02-20 02:30:00,41.6,26.6,30.20,NE,39,2.0,3.0,55,0.00,,---,0.00,VWS V14.01,2013-02-20 08:30:00,
2013-02-20 02:35:00,41.8,26.8,30.20,NE,39,2.0,2.0,55,0.00,,---,0.00,VWS V14.01,2013-02-20 08:35:00,
2013-02-20 02:40:00,41.8,26.8,30.20,NE,42,2.0,2.0,55,0.00,,---,0.00,VWS V14.01,2013-02-20 08:40:00,
2013-02-20 02:45:00,41.9,26.9,30.20,NE,53,1.0,2.0,55,0.00,,---,0.00,VWS V14.01,2013-02-20 08:45:00,
2013-02-20 02:50:00,41.9,26.9,30.20,NE,53,1.0,1.0,55,0.00,,---,0.00,VWS V14.01,2013-02-20 08:50:00,
2013-02-20 02:55:00,41.9,26.5,30.20,NE,51,2.0,3.0,54,0.00,,---,0.00,VWS V14.01,2013-02-20 08:55:00,
2013-02-20 03:00:00,42.1,26.7,30.20,NE,50,2.0,3.0,54,0.00,,---,0.00,VWS V14.01,2013-02-20 09:00:00,
2013-02-20 03:05:00,42.2,26.8,30.20,NE,50,0.0,0.0,54,0.00,,---,0.00,VWS V14.01,2013-02-20 09:05:00,
2013-02-20 03:10:00,42.3,26.4,30.20,NE,53,3.0,3.0,53,0.00,,---,0.00,VWS V14.01,2013-02-20 09:10:00,
2013-02-20 03:15:00,42.5,26.6,30.20,NE,56,2.0,2.0,53,0.00,,---,0.00,VWS V14.01,2013-02-20 09:15:00,
2013-02-20 03:20:00,42.5,26.6,30.20,NE,53,5.0,5.0,53,0.00,,---,0.00,VWS V14.01,2013-02-20 09:20:00,
2013-02-20 03:25:00,42.6,26.7,30.20,NE,51,2.0,7.0,53,0.00,,---,0.00,VWS V14.01,2013-02-20 09:25:00,
2013-02-20 03:30:00,42.8,26.9,30.20,East,85,2.0,2.0,53,0.00,,---,0.00,VWS V14.01,2013-02-20 09:30:00,
2013-02-20 03:35:00,42.8,26.9,30.21,ENE,57,3.0,3.0,53,0.00,,---,0.00,VWS V14.01,2013-02-20 09:35:00,
2013-02-20 03:40:00,42.9,26.5,30.21,ENE,68,2.0,2.0,52,0.00,,---,0.00,VWS V14.01,2013-02-20 09:40:00,
2013-02-20 03:45:00,42.9,26.5,30.21,ENE,68,1.0,1.0,52,0.00,,---,0.00,VWS V14.01,2013-02-20 09:45:00,
2013-02-20 03:50:00,42.9,26.5,30.22,ENE,68,0.0,0.0,52,0.00,,---,0.00,VWS V14.01,2013-02-20 09:50:00,
2013-02-20 03:55:00,42.9,26.5,30.21,ENE,68,0.0,0.0,52,0.00,,---,0.00,VWS V14.01,2013-02-20 09:55:00,
2013-02-20 04:00:00,42.9,27.0,30.22,ENE,70,0.0,0.0,53,0.00,,---,0.00,VWS V14.01,2013-02-20 10:00:00,
2013-02-20 04:05:00,42.8,26.9,30.22,ENE,70,0.0,1.0,53,0.00,,---,0.00,VWS V14.01,2013-02-20 10:05:00,
2013-02-20 04:10:00,42.9,27.4,30.22,ENE,70,1.0,2.0,54,0.00,,---,0.00,VWS V14.01,2013-02-20 10:10:00,
2013-02-20 04:15:00,42.9,28.3,30.22,ENE,61,2.0,3.0,56,0.00,,---,0.00,VWS V14.01,2013-02-20 10:15:00,
2013-02-20 04:20:00,43.1,28.5,30.22,ENE,61,1.0,1.0,56,0.00,,---,0.00,VWS V14.01,2013-02-20 10:20:00,
2013-02-20 04:25:00,42.9,29.6,30.22,ENE,64,5.0,5.0,59,0.00,,---,0.00,VWS V14.01,2013-02-20 10:25:00,
2013-02-20 04:30:00,42.9,27.9,30.22,ENE,60,1.0,2.0,55,0.00,,---,0.00,VWS V14.01,2013-02-20 10:30:00,
2013-02-20 04:35:00,43.1,27.6,30.22,NE,49,6.0,6.0,54,0.00,,---,0.00,VWS V14.01,2013-02-20 10:35:00,
2013-02-20 04:40:00,43.1,28.0,30.22,NE,47,2.0,3.0,55,0.00,,---,0.00,VWS V14.01,2013-02-20 10:40:00,
2013-02-20 04:45:00,42.9,29.6,30.21,NE,47,3.0,3.0,59,0.00,,---,0.00,VWS V14.01,2013-02-20 10:45:00,
2013-02-20 04:50:00,42.6,30.5,30.22,NE,47,2.0,2.0,62,0.00,,---,0.00,VWS V14.01,2013-02-20 10:50:00,
2013-02-20 04:55:00,42.2,32.4,30.22,NE,47,1.0,1.0,68,0.00,,---,0.00,VWS V14.01,2013-02-20 10:55:00,
2013-02-20 05:00:00,41.9,32.8,30.21,NE,47,0.0,0.0,70,0.00,,---,0.00,VWS V14.01,2013-02-20 11:00:00,
2013-02-20 05:05:00,41.5,32.5,30.22,NE,47,0.0,0.0,70,0.00,,---,0.00,VWS V14.01,2013-02-20 11:05:00,
2013-02-20 05:10:00,41.2,33.2,30.23,NE,47,0.0,0.0,73,0.01,,---,0.01,VWS V14.01,2013-02-20 11:10:00,
2013-02-20 05:15:00,40.9,32.9,30.23,NE,47,0.0,0.0,73,0.01,,---,0.01,VWS V14.01,2013-02-20 11:15:00,
2013-02-20 05:20:00,40.3,32.3,30.24,NE,47,0.0,0.0,73,0.02,,---,0.02,VWS V14.01,2013-02-20 11:20:00,
2013-02-20 05:25:00,39.9,35.8,30.24,NE,47,1.0,1.0,85,0.02,,---,0.02,VWS V14.01,2013-02-20 11:25:00,
2013-02-20 05:30:00,39.8,36.5,30.24,NE,47,0.0,0.0,88,0.04,,---,0.04,VWS V14.01,2013-02-20 11:30:00,
2013-02-20 05:35:00,39.5,36.2,30.23,NNE,26,6.0,7.0,88,0.05,,---,0.05,VWS V14.01,2013-02-20 11:35:00,
2013-02-20 05:40:00,38.9,35.9,30.20,NNW,338,7.0,14.0,89,0.08,,---,0.08,VWS V14.01,2013-02-20 11:40:00,
2013-02-20 05:45:00,38.6,35.4,30.19,North,11,12.0,14.0,88,0.10,,---,0.10,VWS V14.01,2013-02-20 11:45:00,
2013-02-20 05:50:00,38.3,35.3,30.17,North,359,6.0,6.0,89,0.12,,---,0.12,VWS V14.01,2013-02-20 11:50:00,
2013-02-20 05:55:00,38.3,34.8,30.17,North,359,5.0,6.0,87,0.13,,---,0.13,VWS V14.01,2013-02-20 11:55:00,
2013-02-20 06:00:00,38.5,35.0,30.18,NE,46,8.0,10.0,87,0.13,,---,0.13,VWS V14.01,2013-02-20 12:00:00,
2013-02-20 06:05:00,38.8,35.3,30.20,NNE,25,5.0,10.0,87,0.13,,---,0.13,VWS V14.01,2013-02-20 12:05:00,
2013-02-20 06:10:00,38.6,35.1,30.18,NNW,344,8.0,8.0,87,0.12,,---,0.13,VWS V14.01,2013-02-20 12:10:00,
2013-02-20 06:15:00,38.6,35.1,30.18,NNW,344,7.0,7.0,87,0.12,,---,0.13,VWS V14.01,2013-02-20 12:15:00,
2013-02-20 06:20:00,38.8,35.0,30.18,North,8,8.0,14.0,86,0.12,,---,0.14,VWS V14.01,2013-02-20 12:20:00,
2013-02-20 06:25:00,38.8,35.0,30.18,NNE,20,0.0,2.0,86,0.12,,---,0.14,VWS V14.01,2013-02-20 12:25:00,
2013-02-20 06:30:00,38.6,34.8,30.17,NE,56,6.0,6.0,86,0.10,,---,0.14,VWS V14.01,2013-02-20 12:30:00,
2013-02-20 06:35:00,38.5,34.7,30.17,NE,36,6.0,6.0,86,0.09,,---,0.14,VWS V14.01,2013-02-20 12:35:00,
2013-02-20 06:40:00,38.5,34.7,30.17,East,85,2.0,3.0,86,0.06,,---,0.14,VWS V14.01,2013-02-20 12:40:00,
2013-02-20 06:45:00,38.3,34.5,30.16,East,83,3.0,3.0,86,0.04,,---,0.14,VWS V14.01,2013-02-20 12:45:00,
2013-02-20 06:50:00,38.2,34.4,30.15,ENE,63,7.0,10.0,86,0.02,,---,0.14,VWS V14.01,2013-02-20 12:50:00,
2013-02-20 06:55:00,38.0,34.2,30.14,ENE,77,2.0,6.0,86,0.01,,---,0.14,VWS V14.01,2013-02-20 12:55:00,
2013-02-20 07:00:00,37.9,34.1,30.15,ENE,61,3.0,3.0,86,0.01,,---,0.14,VWS V14.01,2013-02-20 13:00:00,
2013-02-20 07:05:00,37.8,34.3,30.17,East,83,2.0,5.0,87,0.01,,---,0.14,VWS V14.01,2013-02-20 13:05:00,
2013-02-20 07:11:00,37.6,34.1,30.20,ENE,78,3.0,6.0,87,0.01,,---,0.14,VWS V14.01,2013-02-20 13:11:00,
2013-02-20 07:16:00,37.6,34.4,30.21,SE,136,2.0,2.0,88,0.01,,---,0.14,VWS V14.01,2013-02-20 13:16:00,
2013-02-20 07:21:00,37.6,34.7,30.23,SE,139,0.0,0.0,89,0.00,,---,0.14,VWS V14.01,2013-02-20 13:21:00,
2013-02-20 07:26:00,37.6,34.4,30.23,SE,139,0.0,0.0,88,0.00,,---,0.14,VWS V14.01,2013-02-20 13:26:00,
2013-02-20 07:31:00,37.5,34.3,30.20,NE,53,2.0,5.0,88,0.00,,---,0.14,VWS V14.01,2013-02-20 13:31:00,
2013-02-20 07:36:00,37.5,34.3,30.20,NNE,30,2.0,6.0,88,0.00,,---,0.14,VWS V14.01,2013-02-20 13:36:00,
2013-02-20 07:41:00,37.5,34.3,30.20,NE,53,0.0,7.0,88,0.00,,---,0.14,VWS V14.01,2013-02-20 13:41:00,
2013-02-20 07:46:00,37.5,33.7,30.22,NE,53,0.0,0.0,86,0.00,,---,0.14,VWS V14.01,2013-02-20 13:46:00,
2013-02-20 07:51:00,37.3,33.5,30.21,NE,50,3.0,5.0,86,0.00,,---,0.14,VWS V14.01,2013-02-20 13:51:00,
2013-02-20 07:56:00,37.3,33.5,30.19,NNE,20,3.0,6.0,86,0.00,,---,0.14,VWS V14.01,2013-02-20 13:56:00,
2013-02-20 08:01:00,37.2,33.4,30.17,North,6,5.0,7.0,86,0.01,,---,0.15,VWS V14.01,2013-02-20 14:01:00,
2013-02-20 08:06:00,37.0,33.2,30.17,NE,36,0.0,7.0,86,0.04,,---,0.18,VWS V14.01,2013-02-20 14:06:00,
2013-02-20 08:11:00,36.9,33.4,30.20,North,9,2.0,3.0,87,0.06,,---,0.20,VWS V14.01,2013-02-20 14:11:00,
2013-02-20 08:16:00,36.8,33.3,30.19,NNE,23,1.0,5.0,87,0.10,,---,0.24,VWS V14.01,2013-02-20 14:16:00,
2013-02-20 08:21:00,36.6,33.4,30.22,NNE,32,1.0,5.0,88,0.11,,---,0.25,VWS V14.01,2013-02-20 14:21:00,
2013-02-20 08:26:00,36.5,33.6,30.24,ENE,73,0.0,1.0,89,0.11,,---,0.25,VWS V14.01,2013-02-20 14:26:00,
2013-02-20 08:31:00,36.6,33.7,30.28,ENE,73,0.0,0.0,89,0.11,,---,0.25,VWS V14.01,2013-02-20 14:31:00,
2013-02-20 08:36:00,36.6,33.7,30.26,ENE,74,0.0,0.0,89,0.11,,---,0.25,VWS V14.01,2013-02-20 14:36:00,
2013-02-20 08:41:00,36.5,33.8,30.24,ENE,78,0.0,0.0,90,0.11,,---,0.25,VWS V14.01,2013-02-20 14:41:00,
2013-02-20 08:46:00,36.5,34.1,30.22,ENE,77,3.0,6.0,91,0.11,,---,0.25,VWS V14.01,2013-02-20 14:46:00,
2013-02-20 08:51:00,36.5,34.1,30.20,NE,56,7.0,7.0,91,0.11,,---,0.25,VWS V14.01,2013-02-20 14:51:00,
2013-02-20 08:56:00,36.5,34.1,30.20,ENE,67,1.0,6.0,91,0.11,,---,0.25,VWS V14.01,2013-02-20 14:56:00,
2013-02-20 09:01:00,36.5,34.1,30.22,North,11,6.0,6.0,91,0.11,,---,0.25,VWS V14.01,2013-02-20 15:01:00,
2013-02-20 09:06:00,36.5,34.1,30.25,North,8,2.0,2.0,91,0.09,,---,0.25,VWS V14.01,2013-02-20 15:06:00,
2013-02-20 09:11:00,36.5,34.1,30.28,North,6,0.0,1.0,91,0.05,,---,0.25,VWS V14.01,2013-02-20 15:11:00,
2013-02-20 09:16:00,36.6,34.2,30.27,North,5,5.0,6.0,91,0.02,,---,0.25,VWS V14.01,2013-02-20 15:16:00,
2013-02-20 09:21:00,36.6,34.0,30.27,North,5,0.0,0.0,90,0.00,,---,0.25,VWS V14.01,2013-02-20 15:21:00,
2013-02-20 09:26:00,36.8,34.2,30.29,North,3,1.0,2.0,90,0.00,,---,0.25,VWS V14.01,2013-02-20 15:26:00,
2013-02-20 09:31:00,36.8,34.4,30.29,North,3,0.0,0.0,91,0.00,,---,0.25,VWS V14.01,2013-02-20 15:31:00,
2013-02-20 09:36:00,36.8,34.4,30.28,North,359,0.0,0.0,91,0.00,,---,0.25,VWS V14.01,2013-02-20 15:36:00,
2013-02-20 09:41:00,36.8,34.4,30.28,North,1,2.0,2.0,91,0.01,,---,0.26,VWS V14.01,2013-02-20 15:41:00,
2013-02-20 09:46:00,36.8,34.4,30.28,North,11,1.0,3.0,91,0.01,,---,0.26,VWS V14.01,2013-02-20 15:46:00,
2013-02-20 09:51:00,36.6,34.2,30.25,NNE,25,5.0,6.0,91,0.01,,---,0.26,VWS V14.01,2013-02-20 15:51:00,
2013-02-20 09:56:00,36.8,34.4,30.24,NNE,23,5.0,6.0,91,0.01,,---,0.26,VWS V14.01,2013-02-20 15:56:00,
2013-02-20 10:01:00,37.0,34.9,30.24,NNE,20,5.0,6.0,92,0.01,,---,0.26,VWS V14.01,2013-02-20 16:01:00,
2013-02-20 10:06:00,37.5,35.4,30.23,North,9,3.0,8.0,92,0.01,,---,0.26,VWS V14.01,2013-02-20 16:06:00,
2013-02-20 10:11:00,37.5,35.4,30.25,NE,47,2.0,11.0,92,0.01,,---,0.26,VWS V14.01,2013-02-20 16:11:00,
2013-02-20 10:16:00,37.2,34.8,30.25,NNE,25,5.0,8.0,91,0.01,,---,0.26,VWS V14.01,2013-02-20 16:16:00,
2013-02-20 10:21:00,37.2,34.3,30.26,North,2,3.0,6.0,89,0.01,,---,0.26,VWS V14.01,2013-02-20 16:21:00,
2013-02-20 10:26:00,37.2,34.0,30.26,North,5,6.0,8.0,88,0.01,,---,0.26,VWS V14.01,2013-02-20 16:26:00,
2013-02-20 10:31:00,37.0,33.5,30.25,NE,56,6.0,11.0,87,0.01,,---,0.26,VWS V14.01,2013-02-20 16:31:00,
2013-02-20 10:36:00,36.9,33.1,30.25,NNE,22,2.0,7.0,86,0.01,,---,0.26,VWS V14.01,2013-02-20 16:36:00,
2013-02-20 10:41:00,36.9,33.1,30.25,NNE,23,3.0,3.0,86,0.00,,---,0.26,VWS V14.01,2013-02-20 16:41:00,
2013-02-20 10:46:00,36.8,32.1,30.25,NNE,13,3.0,12.0,83,0.00,,---,0.26,VWS V14.01,2013-02-20 16:46:00,
2013-02-20 10:51:00,36.8,31.8,30.25,NNE,15,8.0,8.0,82,0.00,,---,0.26,VWS V14.01,2013-02-20 16:51:00,
2013-02-20 10:56:00,36.6,31.9,30.22,NE,51,6.0,11.0,83,0.00,,---,0.26,VWS V14.01,2013-02-20 16:56:00,
2013-02-20 11:01:00,36.5,31.8,30.22,NNE,18,12.0,12.0,83,0.00,,---,0.26,VWS V14.01,2013-02-20 17:01:00,
2013-02-20 11:06:00,36.5,31.8,30.23,North,1,1.0,7.0,83,0.00,,---,0.26,VWS V14.01,2013-02-20 17:06:00,
2013-02-20 11:11:00,36.5,31.8,30.31,WNW,284,7.0,7.0,83,0.00,,---,0.26,VWS V14.01,2013-02-20 17:11:00,
2013-02-20 11:16:00,36.5,31.2,30.30,NE,39,3.0,3.0,81,0.00,,---,0.26,VWS V14.01,2013-02-20 17:16:00,
2013-02-20 11:21:00,36.0,31.4,30.26,NNE,26,6.0,11.0,83,0.00,,---,0.26,VWS V14.01,2013-02-20 17:21:00,
2013-02-20 11:26:00,35.0,30.4,30.25,NE,39,7.0,12.0,83,0.00,,---,0.26,VWS V14.01,2013-02-20 17:26:00,
2013-02-20 11:31:00,34.7,30.7,30.25,NE,36,2.0,10.0,85,0.00,,---,0.26,VWS V14.01,2013-02-20 17:31:00,
2013-02-20 11:36:00,34.4,30.6,30.25,NNE,12,7.0,8.0,86,0.00,,---,0.26,VWS V14.01,2013-02-20 17:36:00,
2013-02-20 11:41:00,34.3,30.6,30.23,ENE,59,7.0,11.0,86,0.01,,---,0.27,VWS V14.01,2013-02-20 17:41:00,
2013-02-20 11:46:00,34.4,30.6,30.21,NNE,18,7.0,10.0,86,0.01,,---,0.27,VWS V14.01,2013-02-20 17:46:00,
2013-02-20 11:51:00,34.6,30.9,30.20,NE,35,10.0,10.0,86,0.02,,---,0.28,VWS V14.01,2013-02-20 17:51:00,
2013-02-20 11:56:00,34.9,31.1,30.21,North,355,2.0,12.0,86,0.02,,---,0.28,VWS V14.01,2013-02-20 17:56:00,
2013-02-20 12:01:00,35.5,31.7,30.20,NE,37,6.0,6.0,86,0.02,,---,0.28,VWS V14.01,2013-02-20 18:01:00,
2013-02-20 12:06:00,35.5,32.0,30.19,NNW,334,5.0,13.0,87,0.03,,---,0.29,VWS V14.01,2013-02-20 18:06:00,
2013-02-20 12:11:00,35.9,32.7,30.19,NNE,26,10.0,10.0,88,0.03,,---,0.29,VWS V14.01,2013-02-20 18:11:00,
2013-02-20 12:16:00,35.9,32.4,30.20,ENE,66,2.0,10.0,87,0.03,,---,0.29,VWS V14.01,2013-02-20 18:16:00,
2013-02-20 12:21:00,35.6,32.1,30.19,ENE,66,12.0,12.0,87,0.03,,---,0.29,VWS V14.01,2013-02-20 18:21:00,
2013-02-20 12:26:00,35.3,31.5,30.17,NNE,32,2.0,11.0,86,0.03,,---,0.29,VWS V14.01,2013-02-20 18:26:00,
2013-02-20 12:31:00,35.3,31.8,30.18,NE,35,5.0,7.0,87,0.04,,---,0.30,VWS V14.01,2013-02-20 18:31:00,
2013-02-20 12:36:00,35.3,32.1,30.17,ENE,59,5.0,8.0,88,0.05,,---,0.31,VWS V14.01,2013-02-20 18:36:00,
2013-02-20 12:41:00,35.3,32.4,30.17,East,90,10.0,13.0,89,0.05,,---,0.32,VWS V14.01,2013-02-20 18:41:00,
2013-02-20 12:46:00,35.3,32.4,30.17,ENE,78,13.0,13.0,89,0.05,,---,0.32,VWS V14.01,2013-02-20 18:46:00,
2013-02-20 12:51:00,35.5,32.6,30.18,ENE,75,12.0,12.0,89,0.04,,---,0.32,VWS V14.01,2013-02-20 18:51:00,
2013-02-20 12:56:00,35.8,32.9,30.18,ENE,71,7.0,8.0,89,0.04,,---,0.32,VWS V14.01,2013-02-20 18:56:00,
2013-02-20 13:01:00,35.9,33.0,30.16,ENE,64,13.0,13.0,89,0.05,,---,0.33,VWS V14.01,2013-02-20 19:01:00,
2013-02-20 13:06:00,35.9,33.0,30.17,ENE,57,5.0,11.0,89,0.04,,---,0.33,VWS V14.01,2013-02-20 19:06:00,
2013-02-20 13:11:00,36.0,33.1,30.16,ENE,74,7.0,11.0,89,0.04,,---,0.33,VWS V14.01,2013-02-20 19:11:00,
2013-02-20 13:16:00,36.2,33.3,30.15,ENE,77,7.0,7.0,89,0.04,,---,0.33,VWS V14.01,2013-02-20 19:16:00,
2013-02-20 13:21:00,36.0,32.8,30.15,NNE,23,7.0,7.0,88,0.04,,---,0.33,VWS V14.01,2013-02-20 19:21:00,
2013-02-20 13:26:00,35.9,33.0,30.14,NE,50,11.0,12.0,89,0.04,,---,0.33,VWS V14.01,2013-02-20 19:26:00,
2013-02-20 13:31:00,35.5,32.6,30.13,NNW,348,7.0,8.0,89,0.05,,---,0.35,VWS V14.01,2013-02-20 19:31:00,
2013-02-20 13:36:00,35.2,32.3,30.11,NE,35,7.0,8.0,89,0.06,,---,0.37,VWS V14.01,2013-02-20 19:36:00,
2013-02-20 13:41:00,35.2,32.6,30.11,North,6,7.0,12.0,90,0.05,,---,0.37,VWS V14.01,2013-02-20 19:41:00,
2013-02-20 13:46:00,35.0,32.6,30.13,NNE,23,6.0,7.0,91,0.06,,---,0.38,VWS V14.01,2013-02-20 19:46:00,
2013-02-20 13:51:00,35.0,32.6,30.13,NE,47,7.0,8.0,91,0.06,,---,0.38,VWS V14.01,2013-02-20 19:51:00,
2013-02-20 13:56:00,34.9,32.5,30.11,NNE,26,8.0,16.0,91,0.06,,---,0.38,VWS V14.01,2013-02-20 19:56:00,
2013-02-20 14:01:00,34.9,32.5,30.11,North,8,6.0,11.0,91,0.06,,---,0.39,VWS V14.01,2013-02-20 20:01:00,
2013-02-20 14:06:00,34.9,32.5,30.11,NE,51,8.0,11.0,91,0.06,,---,0.39,VWS V14.01,2013-02-20 20:06:00,
2013-02-20 14:11:00,34.9,32.5,30.14,NNE,13,7.0,8.0,91,0.06,,---,0.39,VWS V14.01,2013-02-20 20:11:00,
2013-02-20 14:16:00,35.0,32.6,30.12,NE,49,5.0,7.0,91,0.07,,---,0.40,VWS V14.01,2013-02-20 20:16:00,
2013-02-20 14:21:00,34.9,32.5,30.13,ENE,70,1.0,3.0,91,0.07,,---,0.40,VWS V14.01,2013-02-20 20:21:00,
2013-02-20 14:26:00,35.0,32.6,30.13,ENE,66,6.0,12.0,91,0.07,,---,0.40,VWS V14.01,2013-02-20 20:26:00,
2013-02-20 14:31:00,35.0,32.9,30.12,NNE,30,6.0,11.0,92,0.07,,---,0.41,VWS V14.01,2013-02-20 20:31:00,
2013-02-20 14:36:00,35.0,32.9,30.11,ENE,77,5.0,8.0,92,0.05,,---,0.41,VWS V14.01,2013-02-20 20:36:00,
2013-02-20 14:41:00,35.3,33.2,30.09,NE,56,3.0,10.0,92,0.04,,---,0.41,VWS V14.01,2013-02-20 20:41:00,
2013-02-20 14:46:00,35.2,33.1,30.12,NNE,25,5.0,8.0,92,0.03,,---,0.41,VWS V14.01,2013-02-20 20:46:00,
2013-02-20 14:51:00,35.2,33.1,30.14,NNE,23,0.0,0.0,92,0.03,,---,0.41,VWS V14.01,2013-02-20 20:51:00,
2013-02-20 14:56:00,35.3,33.2,30.12,North,11,1.0,1.0,92,0.03,,---,0.41,VWS V14.01,2013-02-20 20:56:00,
2013-02-20 15:01:00,35.2,33.1,30.09,ENE,66,0.0,2.0,92,0.02,,---,0.41,VWS V14.01,2013-02-20 21:01:00,
2013-02-20 15:06:00,35.0,32.9,30.09,NNW,341,6.0,14.0,92,0.02,,---,0.41,VWS V14.01,2013-02-20 21:06:00,
2013-02-20 15:11:00,35.0,32.9,30.10,NNE,25,8.0,8.0,92,0.03,,---,0.42,VWS V14.01,2013-02-20 21:11:00,
2013-02-20 15:16:00,35.0,32.9,30.12,North,6,1.0,6.0,92,0.02,,---,0.42,VWS V14.01,2013-02-20 21:16:00,
2013-02-20 15:21:00,35.0,32.9,30.12,NE,37,0.0,0.0,92,0.02,,---,0.42,VWS V14.01,2013-02-20 21:21:00,
2013-02-20 15:26:00,35.2,33.1,30.11,NNE,22,2.0,2.0,92,0.02,,---,0.42,VWS V14.01,2013-02-20 21:26:00,
2013-02-20 15:31:00,35.0,32.9,30.10,NE,51,12.0,12.0,92,0.01,,---,0.42,VWS V14.01,2013-02-20 21:31:00,
2013-02-20 15:36:00,34.9,32.8,30.10,NE,51,1.0,10.0,92,0.02,,---,0.43,VWS V14.01,2013-02-20 21:36:00,
2013-02-20 15:41:00,34.7,32.6,30.10,ENE,59,8.0,13.0,92,0.02,,---,0.43,VWS V14.01,2013-02-20 21:41:00,
2013-02-20 15:46:00,34.7,32.6,30.09,NE,39,3.0,13.0,92,0.02,,---,0.43,VWS V14.01,2013-02-20 21:46:00,
2013-02-20 15:51:00,34.7,32.6,30.09,NNE,13,11.0,11.0,92,0.02,,---,0.43,VWS V14.01,2013-02-20 21:51:00,
2013-02-20 15:56:00,34.7,32.6,30.10,NE,39,10.0,18.0,92,0.02,,---,0.43,VWS V14.01,2013-02-20 21:56:00,
2013-02-20 16:01:00,34.7,32.6,30.10,NNE,15,2.0,13.0,92,0.02,,---,0.43,VWS V14.01,2013-02-20 22:01:00,
2013-02-20 16:06:00,34.7,32.6,30.10,NNE,30,0.0,2.0,92,0.02,,---,0.43,VWS V14.01,2013-02-20 22:06:00,
2013-02-20 16:11:00,34.6,32.5,30.10,NNE,33,5.0,10.0,92,0.02,,---,0.44,VWS V14.01,2013-02-20 22:11:00,
2013-02-20 16:16:00,34.3,32.0,30.11,NNE,33,6.0,11.0,91,0.03,,---,0.45,VWS V14.01,2013-02-20 22:16:00,
2013-02-20 16:21:00,34.3,32.0,30.11,NNE,22,7.0,17.0,91,0.04,,---,0.46,VWS V14.01,2013-02-20 22:21:00,
2013-02-20 16:26:00,34.3,32.0,30.11,North,9,8.0,10.0,91,0.05,,---,0.47,VWS V14.01,2013-02-20 22:26:00,
2013-02-20 16:31:00,34.3,32.2,30.09,NE,36,7.0,10.0,92,0.05,,---,0.47,VWS V14.01,2013-02-20 22:31:00,
2013-02-20 16:36:00,34.1,32.0,30.10,North,1,7.0,12.0,92,0.05,,---,0.48,VWS V14.01,2013-02-20 22:36:00,
2013-02-20 16:41:00,34.3,32.2,30.12,ENE,70,10.0,11.0,92,0.05,,---,0.48,VWS V14.01,2013-02-20 22:41:00,
2013-02-20 16:46:00,34.1,32.0,30.08,NE,50,0.0,12.0,92,0.06,,---,0.49,VWS V14.01,2013-02-20 22:46:00,
2013-02-20 16:51:00,34.1,31.8,30.08,NNE,32,6.0,7.0,91,0.06,,---,0.49,VWS V14.01,2013-02-20 22:51:00,
2013-02-20 16:56:00,34.1,31.8,30.09,ENE,61,8.0,8.0,91,0.07,,---,0.50,VWS V14.01,2013-02-20 22:56:00,
2013-02-20 17:01:00,34.1,31.8,30.09,NNE,18,6.0,12.0,91,0.07,,---,0.50,VWS V14.01,2013-02-20 23:01:00,
2013-02-20 17:06:00,34.1,31.8,30.10,ENE,63,8.0,12.0,91,0.07,,---,0.50,VWS V14.01,2013-02-20 23:06:00,
2013-02-20 17:11:00,34.3,32.0,30.09,ENE,60,13.0,13.0,91,0.08,,---,0.51,VWS V14.01,2013-02-20 23:11:00,
2013-02-20 17:16:00,34.1,32.0,30.08,ENE,71,7.0,16.0,92,0.06,,---,0.51,VWS V14.01,2013-02-20 23:16:00,
2013-02-20 17:21:00,34.1,32.0,30.08,NE,54,3.0,11.0,92,0.06,,---,0.51,VWS V14.01,2013-02-20 23:21:00,
2013-02-20 17:26:00,34.3,32.2,30.08,NNE,13,8.0,11.0,92,0.05,,---,0.51,VWS V14.01,2013-02-20 23:26:00,
2013-02-20 17:31:00,34.1,32.0,30.08,NE,44,2.0,8.0,92,0.05,,---,0.52,VWS V14.01,2013-02-20 23:31:00,
2013-02-20 17:36:00,34.0,31.9,30.08,NE,44,3.0,6.0,92,0.04,,---,0.52,VWS V14.01,2013-02-20 23:36:00,
2013-02-20 17:41:00,34.0,31.9,30.07,NNE,30,0.0,3.0,92,0.04,,---,0.52,VWS V14.01,2013-02-20 23:41:00,
2013-02-20 17:46:00,33.8,31.7,30.06,NNE,20,2.0,2.0,92,0.03,,---,0.52,VWS V14.01,2013-02-20 23:46:00,
2013-02-20 17:51:00,33.7,31.6,30.06,NE,47,8.0,12.0,92,0.03,,---,0.52,VWS V14.01,2013-02-20 23:51:00,
2013-02-20 17:56:00,33.7,31.6,30.06,NNE,18,7.0,8.0,92,0.02,,---,0.52,VWS V14.01,2013-02-20 23:56:00,
2013-02-20 18:01:00,33.5,31.4,30.07,NE,37,0.0,5.0,92,0.02,,---,0.52,VWS V14.01,2013-02-21 00:01:00,
2013-02-20 18:06:00,33.5,31.4,30.07,NE,47,2.0,2.0,92,0.02,,---,0.52,VWS V14.01,2013-02-21 00:06:00,
2013-02-20 18:11:00,33.5,31.4,30.06,ENE,67,8.0,8.0,92,0.01,,---,0.52,VWS V14.01,2013-02-21 00:11:00,
2013-02-20 18:16:00,33.5,31.4,30.06,NE,43,11.0,11.0,92,0.01,,---,0.52,VWS V14.01,2013-02-21 00:16:00,
2013-02-20 18:21:00,33.4,31.3,30.06,NNE,23,10.0,13.0,92,0.01,,---,0.52,VWS V14.01,2013-02-21 00:21:00,
2013-02-20 18:26:00,33.4,31.1,30.05,NE,35,7.0,13.0,91,0.01,,---,0.52,VWS V14.01,2013-02-21 00:26:00,
2013-02-20 18:31:00,33.4,31.1,30.05,NE,49,0.0,6.0,91,0.01,,---,0.52,VWS V14.01,2013-02-21 00:31:00,
2013-02-20 18:36:00,33.4,31.1,30.05,ENE,70,3.0,10.0,91,0.00,,---,0.52,VWS V14.01,2013-02-21 00:36:00,
2013-02-20 18:41:00,33.2,30.9,30.06,East,80,0.0,0.0,91,0.00,,---,0.52,VWS V14.01,2013-02-21 00:41:00,
2013-02-20 18:46:00,33.2,30.9,30.05,NNE,30,0.0,1.0,91,0.00,,---,0.52,VWS V14.01,2013-02-21 00:46:00,
2013-02-20 18:51:00,33.1,30.8,30.05,NE,53,0.0,2.0,91,0.00,,---,0.52,VWS V14.01,2013-02-21 00:51:00,
2013-02-20 18:56:00,33.1,30.8,30.05,East,81,0.0,0.0,91,0.00,,---,0.52,VWS V14.01,2013-02-21 00:56:00,
2013-02-20 19:01:00,33.1,30.8,30.05,ENE,64,0.0,10.0,91,0.00,,---,0.52,VWS V14.01,2013-02-21 01:01:00,
2013-02-20 19:06:00,33.2,30.6,30.05,North,1,5.0,5.0,90,0.00,,---,0.52,VWS V14.01,2013-02-21 01:06:00,
2013-02-20 19:11:00,33.1,30.5,30.05,East,84,0.0,0.0,90,0.00,,---,0.52,VWS V14.01,2013-02-21 01:11:00,
2013-02-20 19:16:00,33.1,30.5,30.05,NNE,25,0.0,0.0,90,0.00,,---,0.52,VWS V14.01,2013-02-21 01:16:00,
2013-02-20 19:21:00,33.1,30.2,30.06,ENE,75,0.0,0.0,89,0.01,,---,0.53,VWS V14.01,2013-02-21 01:21:00,
2013-02-20 19:26:00,33.2,30.3,30.06,NE,53,0.0,6.0,89,0.01,,---,0.53,VWS V14.01,2013-02-21 01:26:00,
2013-02-20 19:31:00,33.2,30.3,30.06,NE,54,0.0,3.0,89,0.01,,---,0.53,VWS V14.01,2013-02-21 01:31:00,
2013-02-20 19:36:00,33.2,30.0,30.05,NE,49,11.0,11.0,88,0.01,,---,0.53,VWS V14.01,2013-02-21 01:36:00,
2013-02-20 19:41:00,33.2,30.0,30.05,NE,51,12.0,14.0,88,0.01,,---,0.53,VWS V14.01,2013-02-21 01:41:00,
2013-02-20 19:46:00,33.2,29.8,30.04,ENE,74,8.0,11.0,87,0.01,,---,0.53,VWS V14.01,2013-02-21 01:46:00,
2013-02-20 19:51:00,33.1,29.9,30.04,East,84,8.0,8.0,88,0.01,,---,0.53,VWS V14.01,2013-02-21 01:51:00,
2013-02-20 19:56:00,33.1,29.9,30.04,NE,37,5.0,8.0,88,0.01,,---,0.53,VWS V14.01,2013-02-21 01:56:00,
2013-02-20 20:02:00,33.1,29.7,30.04,NNE,33,5.0,5.0,87,0.01,,---,0.53,VWS V14.01,2013-02-21 02:02:00,
2013-02-20 20:07:00,33.1,29.4,30.03,NNE,22,10.0,10.0,86,0.01,,---,0.53,VWS V14.01,2013-02-21 02:07:00,
2013-02-20 20:12:00,33.1,29.4,30.04,ENE,59,6.0,7.0,86,0.01,,---,0.53,VWS V14.01,2013-02-21 02:12:00,
2013-02-20 20:17:00,33.1,29.4,30.04,ENE,68,3.0,7.0,86,0.01,,---,0.53,VWS V14.01,2013-02-21 02:17:00,
2013-02-20 20:22:00,33.1,29.4,30.03,ENE,59,12.0,13.0,86,0.00,,---,0.53,VWS V14.01,2013-02-21 02:22:00,
2013-02-20 20:27:00,32.9,29.2,30.03,NNE,16,8.0,10.0,86,0.00,,---,0.53,VWS V14.01,2013-02-21 02:27:00,
2013-02-20 20:32:00,32.9,29.2,30.03,NE,54,6.0,8.0,86,0.00,,---,0.53,VWS V14.01,2013-02-21 02:32:00,
2013-02-20 20:37:00,32.8,29.4,30.03,NE,50,7.0,10.0,87,0.00,,---,0.53,VWS V14.01,2013-02-21 02:37:00,
2013-02-20 20:42:00,32.7,29.3,30.03,East,84,7.0,12.0,87,0.01,,---,0.54,VWS V14.01,2013-02-21 02:42:00,
2013-02-20 20:47:00,32.7,29.3,30.02,NE,53,6.0,16.0,87,0.01,,---,0.54,VWS V14.01,2013-02-21 02:47:00,
2013-02-20 20:52:00,32.7,29.3,30.02,NE,50,6.0,11.0,87,0.01,,---,0.54,VWS V14.01,2013-02-21 02:52:00,
2013-02-20 20:57:00,32.7,29.3,30.02,NE,50,6.0,7.0,87,0.01,,---,0.54,VWS V14.01,2013-02-21 02:57:00,
2013-02-20 21:02:00,32.7,29.5,30.02,ENE,68,10.0,10.0,88,0.01,,---,0.54,VWS V14.01,2013-02-21 03:02:00,
2013-02-20 21:08:00,32.7,29.3,30.02,ENE,60,3.0,3.0,87,0.01,,---,0.54,VWS V14.01,2013-02-21 03:08:00,
2013-02-20 21:13:00,32.7,29.3,30.02,ENE,73,10.0,10.0,87,0.01,,---,0.54,VWS V14.01,2013-02-21 03:13:00,
2013-02-20 21:18:00,32.7,29.3,30.02,East,87,2.0,12.0,87,0.01,,---,0.54,VWS V14.01,2013-02-21 03:18:00,
2013-02-20 21:23:00,32.7,29.3,30.02,NE,44,7.0,7.0,87,0.01,,---,0.54,VWS V14.01,2013-02-21 03:23:00,
2013-02-20 21:28:00,32.7,29.3,30.02,NNE,26,7.0,11.0,87,0.01,,---,0.54,VWS V14.01,2013-02-21 03:28:00,
2013-02-20 21:33:00,32.7,29.3,30.02,East,80,2.0,10.0,87,0.01,,---,0.54,VWS V14.01,2013-02-21 03:33:00,
2013-02-20 21:38:00,32.7,29.3,30.01,NE,42,8.0,11.0,87,0.01,,---,0.54,VWS V14.01,2013-02-21 03:38:00,
2013-02-20 21:43:00,32.7,29.0,30.01,ENE,75,11.0,12.0,86,0.00,,---,0.54,VWS V14.01,2013-02-21 03:43:00,
2013-02-20 21:48:00,32.7,29.0,30.01,North,5,11.0,11.0,86,0.00,,---,0.54,VWS V14.01,2013-02-21 03:48:00,
2013-02-20 21:53:00,32.7,29.0,30.02,ENE,59,2.0,8.0,86,0.00,,---,0.54,VWS V14.01,2013-02-21 03:53:00,
2013-02-20 21:58:00,32.8,28.8,30.02,ENE,59,6.0,7.0,85,0.00,,---,0.54,VWS V14.01,2013-02-21 03:58:00,
2013-02-20 22:03:00,32.8,28.8,30.02,NE,49,6.0,6.0,85,0.00,,---,0.54,VWS V14.01,2013-02-21 04:03:00,
2013-02-20 22:08:00,32.8,28.8,30.02,NNE,30,7.0,7.0,85,0.00,,---,0.54,VWS V14.01,2013-02-21 04:08:00,
2013-02-20 22:13:00,32.8,28.8,30.02,NE,50,3.0,11.0,85,0.00,,---,0.54,VWS V14.01,2013-02-21 04:13:00,
2013-02-20 22:18:00,32.8,28.8,30.02,ENE,74,11.0,13.0,85,0.00,,---,0.54,VWS V14.01,2013-02-21 04:18:00,
2013-02-20 22:23:00,32.8,28.8,30.02,East,83,5.0,11.0,85,0.00,,---,0.54,VWS V14.01,2013-02-21 04:23:00,
2013-02-20 22:28:00,32.8,28.8,30.02,ENE,73,3.0,6.0,85,0.00,,---,0.54,VWS V14.01,2013-02-21 04:28:00,
2013-02-20 22:33:00,32.8,28.8,30.02,NE,46,3.0,11.0,85,0.00,,---,0.54,VWS V14.01,2013-02-21 04:33:00,
2013-02-20 22:38:00,32.8,28.8,30.02,NE,46,6.0,11.0,85,0.00,,---,0.54,VWS V14.01,2013-02-21 04:38:00,
2013-02-20 22:43:00,32.8,28.8,30.02,NE,56,8.0,8.0,85,0.00,,---,0.54,VWS V14.01,2013-02-21 04:43:00,
2013-02-20 22:48:00,32.8,28.8,30.02,NE,40,2.0,11.0,85,0.00,,---,0.54,VWS V14.01,2013-02-21 04:48:00,
2013-02-20 22:53:00,32.8,28.8,30.02,NE,50,6.0,13.0,85,0.00,,---,0.54,VWS V14.01,2013-02-21 04:53:00,
2013-02-20 22:58:00,32.8,28.8,30.01,ENE,59,3.0,11.0,85,0.00,,---,0.54,VWS V14.01,2013-02-21 04:58:00,
2013-02-20 23:00:00,32.8,28.8,30.01,ENE,75,5.0,11.0,85,0.00,,---,0.54,VWS V14.01,2013-02-21 05:00:00,
2013-02-20 23:05:00,32.8,28.8,30.00,East,88,8.0,8.0,85,0.00,,---,0.54,VWS V14.01,2013-02-21 05:05:00,
2013-02-20 23:10:00,32.8,28.8,30.00,ENE,60,5.0,5.0,85,0.00,,---,0.54,VWS V14.01,2013-02-21 05:10:00,
2013-02-20 23:15:00,32.8,28.8,30.00,ENE,73,5.0,6.0,85,0.00,,---,0.54,VWS V14.01,2013-02-21 05:15:00,
2013-02-20 23:20:00,32.8,28.8,29.99,NE,37,11.0,11.0,85,0.00,,---,0.54,VWS V14.01,2013-02-21 05:20:00,
2013-02-20 23:25:00,32.8,28.8,29.99,NE,53,11.0,11.0,85,0.00,,---,0.54,VWS V14.01,2013-02-21 05:25:00,
2013-02-20 23:30:00,32.8,28.8,29.99,ENE,70,6.0,6.0,85,0.00,,---,0.54,VWS V14.01,2013-02-21 05:30:00,
2013-02-20 23:35:00,32.8,28.8,29.99,North,8,7.0,7.0,85,0.00,,---,0.54,VWS V14.01,2013-02-21 05:35:00,
2013-02-20 23:40:00,32.8,28.8,29.98,East,80,5.0,5.0,85,0.00,,---,0.54,VWS V14.01,2013-02-21 05:40:00,
2013-02-20 23:45:00,32.8,29.1,29.97,NNE,26,12.0,13.0,86,0.00,,---,0.54,VWS V14.01,2013-02-21 05:45:00,
2013-02-20 23:50:00,32.8,29.1,29.97,East,98,7.0,8.0,86,0.00,,---,0.54,VWS V14.01,2013-02-21 05:50:00,
2013-02-20 23:55:00,32.8,29.1,29.97,NNE,19,8.0,10.0,86,0.00,,---,0.54,VWS V14.01,2013-02-21 05:55:00,